Terminal Aerodrome Forecast
Issued by NWS

Home | Current Version | Previous Version | Text Only | Print | Product List | Glossary On
Versions: 1 2 3 4 5 6 7 8 9 10 11 12 13 14 15
000
FTAK31 PANC 271849 AAA
TAFAVD
TAF AMD
PAVD 271849Z 2719/2818 VRB04KT 6SM -RA BR SCT005 BKN025
      TEMPO 2719/2722 SCT025 BKN035
     FM272200 24006KT P6SM -SHRA BKN035 OVC080
     FM280200 24006KT P6SM -SHRA BKN020 OVC040
     FM281200 VRB05KT P6SM -RA OVC035
      AMD LTD TO CLD VIS AND WIND=

USA.gov is the U.S. government's official web portal to all federal, state and local government web resources and services.